Haile, Louisiana
Current Conditions -  °F | °C
As of 11:15 AM on Friday 24 Oct 2014 (Local Time) from KBQP Reporting Station
Clear Clear  
Wind Chill: 64°   Ceiling: Unl
Heat Index: 64°   Visibility: 10mi
Dew Point: 49°   Wind: 3mph
Humidity: 59%   Direction: 40°NE
Pressure: 30.19"   Gusts: NA
Location:  32.906°N, 92.243°W
Report Text: KBQP 241615Z AUTO 04003KT 10SM CLR 18/10 A3019 RMK AO2 T01760095
Loading
Personal Weather Stations






























Interactive Weather Map
Tropical Storm Tracking
New forecast layout! Learn more

10-Day Weather Forecast

Advertisements
Track Severe Weather on mobile